Bellview, Louisiana
Current Conditions -  °F | °C
As of 2:53 PM on Monday 24 Nov 2014 (Local Time) from KMLU Reporting Station
Clear Clear  
Wind Chill: 61°   Ceiling: Unl
Heat Index: 61°   Visibility: 10mi
Dew Point: 32°   Wind: 12mph
Humidity: 34%   Direction: 270°W
Pressure: 29.99"   Gusts: NA
Location:  32.1631°N, 92.1971°W
Report Text: KMLU 242053Z 27010KT 10SM CLR 16/00 A2999 RMK AO2 SLP154 T01610000 53001
Loading
Personal Weather Stations






























Interactive Weather Map New forecast layout! Learn more

10-Day Weather Forecast

Advertisements
Track Severe Weather on mobile